Terminal Aerodrome Forecast
Issued by NWS Mt. Holly, NJ

Home | Current Version | Previous Version | Text Only | Print | Product List | Glossary On
Versions: 1 2 3 4 5 6 7 8 9 10 11 12 13 14 15 16 17 18 19 20
000
FTUS41 KPHI 230728 AAA
TAFRDG
TAF AMD
KRDG 230728Z 2307/2406 VRB03KT P6SM VCSH SCT004 BKN025
     FM231300 06005KT P6SM SCT040
     FM231800 11005KT P6SM BKN070 PROB30 2322/2403 4SM +TSRA
      OVC035CB
     FM240300 VRB03KT 4SM SHRA BR OVC015=

USA.gov is the U.S. government's official web portal to all federal, state and local government web resources and services.